sensor_id;sensor_type;location;lat;lon;timestamp;P1;durP1;ratioP1;P2;durP2;ratioP2
78290;SDS011;67543;45.494;9.100;2023-03-05T17:24:25;19.50;;;10.38;;
78290;SDS011;67543;45.494;9.100;2023-03-05T17:26:50;16.98;;;8.70;;
78290;SDS011;67543;45.494;9.100;2023-03-05T17:29:16;13.07;;;6.37;;
78290;SDS011;67543;45.494;9.100;2023-03-05T17:31:42;11.20;;;6.10;;
78290;SDS011;67543;45.494;9.100;2023-03-05T17:34:08;9.07;;;5.43;;
78290;SDS011;67543;45.494;9.100;2023-03-05T17:36:34;9.13;;;5.15;;
78290;SDS011;67543;45.494;9.100;2023-03-05T17:38:59;9.32;;;4.72;;
78290;SDS011;67543;45.494;9.100;2023-03-05T17:41:25;12.32;;;6.22;;
78290;SDS011;67543;45.494;9.100;2023-03-05T17:43:50;8.38;;;5.05;;
78290;SDS011;67543;45.494;9.100;2023-03-05T17:46:16;9.70;;;5.35;;
78290;SDS011;67543;45.494;9.100;2023-03-05T17:48:41;12.00;;;5.25;;
78290;SDS011;67543;45.494;9.100;2023-03-05T17:51:07;9.07;;;5.18;;
78290;SDS011;67543;45.494;9.100;2023-03-05T17:53:34;9.35;;;4.60;;
78290;SDS011;67543;45.494;9.100;2023-03-05T17:56:00;11.50;;;4.93;;
78290;SDS011;67543;45.494;9.100;2023-03-05T17:58:26;9.63;;;5.05;;
78290;SDS011;67543;45.494;9.100;2023-03-05T18:00:51;9.77;;;6.25;;
78290;SDS011;67543;45.494;9.100;2023-03-05T18:03:16;9.30;;;5.00;;
78290;SDS011;67543;45.494;9.100;2023-03-05T18:05:42;9.25;;;5.80;;
78290;SDS011;67543;45.494;9.100;2023-03-05T18:08:08;12.55;;;5.72;;
78290;SDS011;67543;45.494;9.100;2023-03-05T18:10:33;10.40;;;5.78;;
78290;SDS011;67543;45.494;9.100;2023-03-05T18:12:59;12.13;;;5.38;;
78290;SDS011;67543;45.494;9.100;2023-03-05T18:15:25;10.55;;;6.03;;
78290;SDS011;67543;45.494;9.100;2023-03-05T18:17:51;9.45;;;5.47;;
78290;SDS011;67543;45.494;9.100;2023-03-05T18:20:24;13.88;;;5.25;;
78290;SDS011;67543;45.494;9.100;2023-03-05T18:22:50;11.15;;;5.35;;
78290;SDS011;67543;45.494;9.100;2023-03-05T18:25:15;14.75;;;5.95;;
78290;SDS011;67543;45.494;9.100;2023-03-05T18:27:40;11.50;;;5.95;;
78290;SDS011;67543;45.494;9.100;2023-03-05T18:30:06;10.07;;;5.90;;
78290;SDS011;67543;45.494;9.100;2023-03-05T18:32:32;10.02;;;6.05;;
78290;SDS011;67543;45.494;9.100;2023-03-05T18:34:57;12.13;;;6.47;;
78290;SDS011;67543;45.494;9.100;2023-03-05T18:37:23;14.93;;;7.07;;
78290;SDS011;67543;45.494;9.100;2023-03-05T18:39:48;12.60;;;7.10;;
78290;SDS011;67543;45.494;9.100;2023-03-05T18:42:13;12.15;;;7.00;;
78290;SDS011;67543;45.494;9.100;2023-03-05T18:44:39;9.98;;;6.65;;
78290;SDS011;67543;45.494;9.100;2023-03-05T18:47:05;14.30;;;7.63;;
78290;SDS011;67543;45.494;9.100;2023-03-05T18:49:30;10.05;;;7.05;;
78290;SDS011;67543;45.494;9.100;2023-03-05T18:51:56;14.23;;;7.25;;
78290;SDS011;67543;45.494;9.100;2023-03-05T18:54:21;14.48;;;7.45;;
78290;SDS011;67543;45.494;9.100;2023-03-05T18:56:50;21.57;;;8.63;;
78290;SDS011;67543;45.494;9.100;2023-03-05T18:59:16;11.80;;;7.57;;
78290;SDS011;67543;45.494;9.100;2023-03-05T19:01:41;15.13;;;8.50;;
78290;SDS011;67543;45.494;9.100;2023-03-05T19:04:08;16.70;;;8.07;;
78290;SDS011;67543;45.494;9.100;2023-03-05T19:06:35;16.60;;;8.18;;
78290;SDS011;67543;45.494;9.100;2023-03-05T19:12:23;14.30;;;7.63;;
78290;SDS011;67543;45.494;9.100;2023-03-05T19:14:52;16.42;;;8.98;;
78290;SDS011;67543;45.494;9.100;2023-03-05T19:17:17;19.70;;;9.75;;
78290;SDS011;67543;45.494;9.100;2023-03-05T19:19:43;14.15;;;8.70;;
78290;SDS011;67543;45.494;9.100;2023-03-05T19:22:13;16.50;;;8.73;;
78290;SDS011;67543;45.494;9.100;2023-03-05T19:24:39;14.25;;;9.55;;
78290;SDS011;67543;45.494;9.100;2023-03-05T19:27:04;16.15;;;9.57;;
78290;SDS011;67543;45.494;9.100;2023-03-05T19:29:35;17.23;;;9.60;;
78290;SDS011;67543;45.494;9.100;2023-03-05T19:32:02;15.43;;;8.65;;
78290;SDS011;67543;45.494;9.100;2023-03-05T19:34:28;27.75;;;12.95;;
78290;SDS011;67543;45.494;9.100;2023-03-05T19:36:55;20.95;;;12.27;;
78290;SDS011;67543;45.494;9.100;2023-03-05T19:39:21;17.73;;;9.50;;
78290;SDS011;67543;45.494;9.100;2023-03-05T19:41:46;20.85;;;9.77;;
78290;SDS011;67543;45.494;9.100;2023-03-05T19:44:12;13.88;;;8.35;;
78290;SDS011;67543;45.494;9.100;2023-03-05T19:46:38;17.75;;;9.90;;
78290;SDS011;67543;45.494;9.100;2023-03-05T19:49:05;16.25;;;8.57;;
78290;SDS011;67543;45.494;9.100;2023-03-05T19:53:56;16.10;;;8.57;;
78290;SDS011;67543;45.494;9.100;2023-03-05T19:58:47;17.07;;;8.47;;
78290;SDS011;67543;45.494;9.100;2023-03-05T20:01:17;15.05;;;8.65;;
78290;SDS011;67543;45.494;9.100;2023-03-05T20:03:44;17.63;;;8.98;;
78290;SDS011;67543;45.494;9.100;2023-03-05T20:06:10;18.30;;;8.40;;
78290;SDS011;67543;45.494;9.100;2023-03-05T20:11:01;21.60;;;9.80;;
78290;SDS011;67543;45.494;9.100;2023-03-05T20:13:26;17.10;;;9.15;;
78290;SDS011;67543;45.494;9.100;2023-03-05T20:15:52;17.40;;;8.95;;
78290;SDS011;67543;45.494;9.100;2023-03-05T20:18:17;18.95;;;10.15;;
78290;SDS011;67543;45.494;9.100;2023-03-05T20:23:08;17.87;;;9.27;;
78290;SDS011;67543;45.494;9.100;2023-03-05T20:27:59;19.15;;;9.88;;
78290;SDS011;67543;45.494;9.100;2023-03-05T20:30:24;18.55;;;10.07;;
78290;SDS011;67543;45.494;9.100;2023-03-05T20:35:16;19.90;;;9.67;;
78290;SDS011;67543;45.494;9.100;2023-03-05T20:41:31;17.00;;;9.18;;
78290;SDS011;67543;45.494;9.100;2023-03-05T20:46:05;22.27;;;12.30;;
78290;SDS011;67543;45.494;9.100;2023-03-05T20:48:48;21.13;;;10.73;;
78290;SDS011;67543;45.494;9.100;2023-03-05T20:51:19;21.67;;;9.70;;
78290;SDS011;67543;45.494;9.100;2023-03-05T20:53:50;19.88;;;10.63;;
78290;SDS011;67543;45.494;9.100;2023-03-05T20:56:18;19.58;;;11.15;;
78290;SDS011;67543;45.494;9.100;2023-03-05T21:01:09;22.70;;;10.43;;
78290;SDS011;67543;45.494;9.100;2023-03-05T21:06:01;20.65;;;9.15;;
78290;SDS011;67543;45.494;9.100;2023-03-05T21:08:27;31.23;;;12.23;;
78290;SDS011;67543;45.494;9.100;2023-03-05T21:13:18;17.90;;;10.27;;
78290;SDS011;67543;45.494;9.100;2023-03-05T21:18:09;26.87;;;11.13;;
78290;SDS011;67543;45.494;9.100;2023-03-05T21:20:34;22.48;;;9.73;;
78290;SDS011;67543;45.494;9.100;2023-03-05T21:25:28;21.53;;;11.07;;
78290;SDS011;67543;45.494;9.100;2023-03-05T21:28:08;23.90;;;10.98;;
78290;SDS011;67543;45.494;9.100;2023-03-05T21:30:40;23.45;;;10.80;;
78290;SDS011;67543;45.494;9.100;2023-03-05T21:33:11;23.08;;;10.57;;
78290;SDS011;67543;45.494;9.100;2023-03-05T21:35:38;20.90;;;10.52;;
78290;SDS011;67543;45.494;9.100;2023-03-05T21:40:30;26.13;;;10.90;;
78290;SDS011;67543;45.494;9.100;2023-03-05T21:42:56;24.73;;;10.98;;
78290;SDS011;67543;45.494;9.100;2023-03-05T21:47:48;24.48;;;10.25;;
78290;SDS011;67543;45.494;9.100;2023-03-05T21:50:16;21.63;;;10.70;;
78290;SDS011;67543;45.494;9.100;2023-03-05T21:55:09;26.55;;;11.63;;
78290;SDS011;67543;45.494;9.100;2023-03-05T21:57:35;23.25;;;10.60;;
78290;SDS011;67543;45.494;9.100;2023-03-05T22:02:27;25.60;;;10.70;;
78290;SDS011;67543;45.494;9.100;2023-03-05T22:07:18;22.80;;;10.80;;
78290;SDS011;67543;45.494;9.100;2023-03-05T22:09:44;18.65;;;10.65;;
78290;SDS011;67543;45.494;9.100;2023-03-05T22:15:12;20.88;;;9.20;;
78290;SDS011;67543;45.494;9.100;2023-03-05T22:20:02;19.70;;;10.03;;
78290;SDS011;67543;45.494;9.100;2023-03-05T22:24:53;20.67;;;10.47;;
78290;SDS011;67543;45.494;9.100;2023-03-05T22:29:44;17.97;;;10.07;;
78290;SDS011;67543;45.494;9.100;2023-03-05T22:34:34;21.23;;;10.53;;
78290;SDS011;67543;45.494;9.100;2023-03-05T22:37:01;22.08;;;10.30;;
78290;SDS011;67543;45.494;9.100;2023-03-05T22:39:27;30.17;;;12.13;;
78290;SDS011;67543;45.494;9.100;2023-03-05T22:44:18;21.80;;;10.95;;
78290;SDS011;67543;45.494;9.100;2023-03-05T22:49:09;19.77;;;10.97;;
78290;SDS011;67543;45.494;9.100;2023-03-05T22:54:00;18.27;;;9.40;;
78290;SDS011;67543;45.494;9.100;2023-03-05T22:58:50;18.33;;;8.90;;
78290;SDS011;67543;45.494;9.100;2023-03-05T23:01:17;24.55;;;10.02;;
78290;SDS011;67543;45.494;9.100;2023-03-05T23:07:08;17.80;;;9.25;;
78290;SDS011;67543;45.494;9.100;2023-03-05T23:11:58;23.43;;;11.80;;
78290;SDS011;67543;45.494;9.100;2023-03-05T23:16:49;23.10;;;9.93;;
78290;SDS011;67543;45.494;9.100;2023-03-05T23:19:14;19.83;;;9.48;;
78290;SDS011;67543;45.494;9.100;2023-03-05T23:24:05;18.90;;;9.63;;
78290;SDS011;67543;45.494;9.100;2023-03-05T23:26:31;23.30;;;11.10;;
78290;SDS011;67543;45.494;9.100;2023-03-05T23:28:56;24.77;;;9.93;;
78290;SDS011;67543;45.494;9.100;2023-03-05T23:31:22;17.33;;;10.05;;
78290;SDS011;67543;45.494;9.100;2023-03-05T23:33:49;22.60;;;9.95;;
78290;SDS011;67543;45.494;9.100;2023-03-05T23:38:43;21.70;;;10.20;;
78290;SDS011;67543;45.494;9.100;2023-03-05T23:43:34;21.80;;;9.83;;
78290;SDS011;67543;45.494;9.100;2023-03-05T23:48:26;18.58;;;8.90;;
78290;SDS011;67543;45.494;9.100;2023-03-05T23:50:52;22.80;;;9.40;;
78290;SDS011;67543;45.494;9.100;2023-03-05T23:55:50;16.55;;;9.13;;
